Time;durP1;ratioP1;P1;durP2;ratioP2;P2;SDS_P1;SDS_P2;PMS_P1;PMS_P2;Temp;Humidity;BMP_temperature;BMP_pressure;BME280_temperature;BME280_humidity;BME280_pressure;Samples;Min_cycle;Max_cycle;Signal;HPM_P1;HPM_P2
2022/10/12 00:00:17;;;;;;;17.33;9.35;;;;;;;5.45;100.00;102344.63;5257296;28;20033;-66
2022/10/12 00:02:48;;;;;;;22.00;10.75;;;;;;;5.40;100.00;102355.34;5256950;28;20037;-66
2022/10/12 00:05:19;;;;;;;21.73;9.88;;;;;;;5.42;100.00;102344.72;5257939;28;20033;-66
2022/10/12 00:07:51;;;;;;;22.00;9.73;;;;;;;5.38;100.00;102351.00;5251158;28;20101;-66
2022/10/12 00:10:22;;;;;;;18.75;9.60;;;;;;;5.35;100.00;102366.97;5251739;28;20036;-66
2022/10/12 00:12:53;;;;;;;19.15;9.82;;;;;;;5.32;100.00;102351.22;5251351;28;20033;-66
2022/10/12 00:15:25;;;;;;;18.20;9.18;;;;;;;5.27;100.00;102349.56;5247865;28;20029;-66
2022/10/12 00:17:56;;;;;;;16.88;8.35;;;;;;;5.28;100.00;102346.00;5246942;28;20055;-66
2022/10/12 00:20:27;;;;;;;16.58;8.82;;;;;;;5.29;100.00;102344.19;5246404;28;20124;-66
2022/10/12 00:22:59;;;;;;;19.08;8.45;;;;;;;5.42;100.00;102342.06;5246257;28;20148;-66
2022/10/12 00:25:30;;;;;;;17.48;8.18;;;;;;;5.26;100.00;102353.13;5250261;28;20044;-66
2022/10/12 00:28:01;;;;;;;16.45;9.05;;;;;;;5.27;100.00;102356.63;5246118;28;20654;-66
2022/10/12 00:30:33;;;;;;;15.32;8.57;;;;;;;5.40;100.00;102347.41;5252197;28;20394;-66
2022/10/12 00:33:05;;;;;;;15.27;8.60;;;;;;;5.30;100.00;102349.47;5259657;28;20130;-66
2022/10/12 00:35:36;;;;;;;15.30;7.30;;;;;;;5.26;100.00;102339.88;5256198;28;20431;-66
2022/10/12 00:38:07;;;;;;;17.42;7.90;;;;;;;5.24;100.00;102351.44;5251694;28;20087;-66
2022/10/12 00:40:38;;;;;;;14.18;7.47;;;;;;;5.19;100.00;102346.25;5255260;28;20744;-66
2022/10/12 00:43:25;;;;;;;17.42;8.32;;;;;;;5.18;100.00;102344.53;5224550;28;20797;-66
2022/10/12 00:46:00;;;;;;;17.10;8.10;;;;;;;5.11;100.00;102346.50;5248564;28;20736;-66
2022/10/12 00:48:31;;;;;;;;;;;;;;;5.24;100.00;102344.34;5259125;28;20062;-66
2022/10/12 00:51:03;;;;;;;17.88;7.80;;;;;;;5.18;100.00;102347.19;5252027;28;20357;-66
2022/10/12 00:53:40;;;;;;;14.07;7.30;;;;;;;5.25;100.00;102354.03;5248129;28;20488;-66
2022/10/12 00:56:18;;;;;;;14.50;7.20;;;;;;;5.17;100.00;102358.69;5254901;28;20550;-66
2022/10/12 00:58:50;;;;;;;15.05;8.55;;;;;;;5.19;100.00;102362.13;5259083;28;21507;-66
2022/10/12 01:01:22;;;;;;;17.58;8.98;;;;;;;5.21;100.00;102357.66;5257132;28;20032;-66
2022/10/12 01:03:53;;;;;;;14.30;8.38;;;;;;;5.19;100.00;102353.34;5254788;28;20044;-66
2022/10/12 01:06:25;;;;;;;14.45;8.77;;;;;;;5.30;100.00;102357.41;5252438;28;20064;-66
2022/10/12 01:08:57;;;;;;;16.23;8.82;;;;;;;5.24;100.00;102364.66;5234017;28;20513;-66
2022/10/12 01:11:28;;;;;;;17.90;8.43;;;;;;;5.26;100.00;102352.25;5253058;28;20538;-66
2022/10/12 01:13:59;;;;;;;16.27;8.45;;;;;;;5.27;100.00;102341.63;5253734;28;20478;-66
2022/10/12 01:16:41;;;;;;;15.30;8.07;;;;;;;5.28;100.00;102335.41;5258294;28;20037;-66
2022/10/12 01:19:36;;;;;;;14.40;7.47;;;;;;;5.31;100.00;102337.09;5259741;28;20037;-66
2022/10/12 01:22:14;;;;;;;14.43;7.35;;;;;;;5.26;100.00;102324.00;5259428;28;20081;-66
2022/10/12 01:25:00;;;;;;;17.55;7.53;;;;;;;5.29;100.00;102328.31;5259325;28;20406;-67
2022/10/12 01:27:45;;;;;;;15.65;7.80;;;;;;;5.28;100.00;102314.25;5259080;28;20025;-66
2022/10/12 01:30:50;;;;;;;12.20;7.63;;;;;;;5.34;100.00;102317.63;5256139;28;20082;-66
2022/10/12 01:33:31;;;;;;;13.98;7.38;;;;;;;5.30;100.00;102322.13;5247857;28;20044;-66
2022/10/12 01:36:22;;;;;;;17.77;7.53;;;;;;;5.29;100.00;102316.00;5256195;28;20099;-66
2022/10/12 01:39:33;;;;;;;14.30;7.28;;;;;;;5.30;100.00;102317.69;5265211;28;20065;-66
2022/10/12 01:42:09;;;;;;;15.65;7.82;;;;;;;5.26;100.00;102304.63;5265339;28;20040;-66
2022/10/12 01:44:41;;;;;;;16.98;7.95;;;;;;;5.24;100.00;102312.59;5258666;28;20483;-66
2022/10/12 01:47:13;;;;;;;16.40;7.38;;;;;;;5.31;100.00;102307.97;5262933;28;20518;-66
2022/10/12 01:49:44;;;;;;;15.40;8.63;;;;;;;5.33;100.00;102302.63;5257512;28;20098;-66
2022/10/12 01:52:38;;;;;;;19.48;9.23;;;;;;;5.28;100.00;102301.00;5268940;28;20032;-66
2022/10/12 01:55:25;;;;;;;15.50;8.73;;;;;;;5.39;100.00;102298.03;5259039;28;20074;-66
2022/10/12 01:58:19;;;;;;;17.63;8.43;;;;;;;5.42;100.00;102297.91;5243879;28;20312;-66
2022/10/12 02:01:03;;;;;;;13.40;7.78;;;;;;;5.44;100.00;102304.03;5257711;28;20086;-66
2022/10/12 02:03:55;;;;;;;16.25;9.27;;;;;;;5.45;100.00;102294.34;5258010;28;20032;-67
2022/10/12 02:06:38;;;;;;;14.07;8.65;;;;;;;5.38;100.00;102298.09;5258912;28;20158;-66
2022/10/12 02:09:28;;;;;;;16.17;7.90;;;;;;;5.45;100.00;102294.34;5256559;28;20044;-66
2022/10/12 02:12:04;;;;;;;14.63;8.25;;;;;;;5.36;100.00;102291.97;5258254;28;20072;-66
2022/10/12 02:14:44;;;;;;;15.65;8.43;;;;;;;5.33;100.00;102289.41;5264190;28;20108;-66
2022/10/12 02:17:19;;;;;;;15.32;8.45;;;;;;;5.30;100.00;102283.28;5253850;28;20566;-66
2022/10/12 02:19:56;;;;;;;17.60;7.97;;;;;;;5.28;100.00;102286.91;5260482;28;20028;-66
2022/10/12 02:22:33;;;;;;;18.08;7.82;;;;;;;5.25;100.00;102285.25;5258712;28;20025;-66
2022/10/12 02:25:09;;;;;;;16.60;8.13;;;;;;;5.25;100.00;102282.59;5251989;28;20021;-66
2022/10/12 02:27:46;;;;;;;14.38;8.07;;;;;;;5.32;100.00;102275.31;5254541;28;20142;-66
2022/10/12 02:30:18;;;;;;;19.23;8.05;;;;;;;5.27;100.00;102283.41;5256022;28;20067;-66
2022/10/12 02:32:57;;;;;;;14.93;8.02;;;;;;;5.26;100.00;102273.72;5260152;28;20029;-66
2022/10/12 02:35:51;;;;;;;16.85;8.05;;;;;;;5.23;100.00;102276.47;5257272;28;20029;-66
2022/10/12 02:38:31;;;;;;;16.23;8.02;;;;;;;5.26;100.00;102276.38;5255929;28;20486;-66
2022/10/12 02:41:08;;;;;;;17.40;8.10;;;;;;;5.19;100.00;102277.47;5260673;28;20027;-66
2022/10/12 02:43:48;;;;;;;18.20;8.45;;;;;;;5.22;100.00;102280.03;5260729;28;20474;-66
2022/10/12 02:46:24;;;;;;;17.63;8.02;;;;;;;5.20;100.00;102276.56;5256435;28;20482;-66
2022/10/12 02:48:57;;;;;;;16.92;8.85;;;;;;;5.12;100.00;102275.94;5256080;28;20380;-66
2022/10/12 02:51:31;;;;;;;16.93;7.97;;;;;;;5.08;100.00;102283.13;5253778;28;20032;-66
2022/10/12 02:54:02;;;;;;;12.75;7.53;;;;;;;5.09;100.00;102276.03;5255082;28;20506;-66
2022/10/12 02:56:33;;;;;;;13.65;7.85;;;;;;;5.05;100.00;102262.03;5252846;28;20027;-66
2022/10/12 02:59:04;;;;;;;17.77;8.40;;;;;;;4.98;100.00;102263.13;5262355;28;20450;-66
2022/10/12 03:01:36;;;;;;;15.90;7.97;;;;;;;4.96;100.00;102267.59;5257675;28;20743;-66
2022/10/12 03:04:07;;;;;;;12.52;7.25;;;;;;;5.02;100.00;102263.91;5257345;28;20020;-66
2022/10/12 03:06:41;;;;;;;15.75;8.15;;;;;;;5.03;100.00;102269.16;5258503;28;20573;-66
2022/10/12 03:09:13;;;;;;;16.65;7.57;;;;;;;5.05;100.00;102261.16;5257551;28;20039;-66
2022/10/12 03:11:44;;;;;;;14.43;7.70;;;;;;;5.02;100.00;102255.97;5253323;28;20020;-67
2022/10/12 03:14:16;;;;;;;16.13;8.07;;;;;;;5.06;100.00;102254.94;5252097;28;20035;-66
2022/10/12 03:16:47;;;;;;;18.77;8.05;;;;;;;4.96;100.00;102256.16;5248627;28;20049;-66
2022/10/12 03:19:19;;;;;;;18.00;8.48;;;;;;;4.91;100.00;102251.88;5254619;28;20056;-66
2022/10/12 03:21:50;;;;;;;17.08;8.55;;;;;;;4.92;100.00;102250.09;5249277;28;20086;-66
2022/10/12 03:24:21;;;;;;;16.00;8.52;;;;;;;4.87;100.00;102252.00;5250131;28;20048;-66
2022/10/12 03:26:52;;;;;;;19.75;8.63;;;;;;;4.86;100.00;102251.13;5255009;28;20064;-66
2022/10/12 03:29:24;;;;;;;14.18;8.00;;;;;;;4.85;100.00;102249.41;5249264;28;20444;-66
2022/10/12 03:31:55;;;;;;;15.75;8.50;;;;;;;4.83;100.00;102253.00;5247627;28;20032;-67
2022/10/12 03:34:26;;;;;;;18.45;8.40;;;;;;;4.79;100.00;102254.88;5252829;28;20032;-66
2022/10/12 03:36:57;;;;;;;16.95;9.07;;;;;;;4.76;100.00;102254.97;5253311;28;20086;-66
2022/10/12 03:39:29;;;;;;;15.15;8.88;;;;;;;4.74;100.00;102256.81;5257438;28;20461;-66
2022/10/12 03:42:00;;;;;;;16.75;8.63;;;;;;;4.74;100.00;102253.25;5246661;28;20532;-66
2022/10/12 03:44:31;;;;;;;14.82;8.40;;;;;;;4.74;100.00;102251.50;5226897;28;20526;-66
2022/10/12 03:47:03;;;;;;;16.10;8.23;;;;;;;4.78;100.00;102250.50;5249785;28;20037;-66
2022/10/12 03:49:34;;;;;;;16.40;8.65;;;;;;;4.75;100.00;102260.31;5250261;28;20024;-66
2022/10/12 03:52:05;;;;;;;14.85;8.35;;;;;;;4.75;100.00;102253.22;5250044;28;20585;-66
2022/10/12 03:54:36;;;;;;;19.67;9.32;;;;;;;4.69;100.00;102256.06;5248506;28;20061;-67
2022/10/12 03:57:08;;;;;;;15.68;8.52;;;;;;;4.64;100.00;102250.91;5248410;28;20383;-66
2022/10/12 03:59:39;;;;;;;19.95;9.23;;;;;;;4.60;100.00;102245.75;5260582;28;20041;-66
2022/10/12 04:02:10;;;;;;;17.00;9.05;;;;;;;4.57;100.00;102241.44;5255951;28;20025;-66
2022/10/12 04:04:41;;;;;;;18.85;9.50;;;;;;;4.53;100.00;102239.78;5263932;28;20032;-66
2022/10/12 04:07:13;;;;;;;15.90;7.85;;;;;;;4.57;100.00;102241.44;5259985;28;20071;-66
2022/10/12 04:09:44;;;;;;;15.80;8.00;;;;;;;4.64;100.00;102227.13;5260627;28;20048;-66
2022/10/12 04:12:15;;;;;;;16.35;9.02;;;;;;;4.50;100.00;102237.22;5253094;28;20673;-67
2022/10/12 04:14:46;;;;;;;17.98;8.93;;;;;;;4.48;100.00;102239.91;5258368;28;20036;-66
2022/10/12 04:17:18;;;;;;;16.45;9.07;;;;;;;4.43;100.00;102227.72;5244287;28;20089;-66
2022/10/12 04:19:49;;;;;;;14.85;9.32;;;;;;;4.47;100.00;102234.69;5248560;28;20422;-65
2022/10/12 04:22:22;;;;;;;15.45;9.85;;;;;;;4.45;100.00;102242.66;5247435;28;20152;-66
2022/10/12 04:24:54;;;;;;;14.18;8.90;;;;;;;4.50;100.00;102243.38;5258001;28;20492;-66
2022/10/12 04:27:25;;;;;;;14.60;9.02;;;;;;;4.58;100.00;102244.94;5248938;28;20033;-66
2022/10/12 04:29:56;;;;;;;17.13;10.77;;;;;;;4.49;100.00;102240.78;5255049;28;20045;-66
2022/10/12 04:32:27;;;;;;;19.75;11.48;;;;;;;4.49;100.00;102243.44;5252596;28;21312;-66
2022/10/12 04:34:59;;;;;;;17.23;10.88;;;;;;;4.46;100.00;102244.34;5258135;28;20025;-66
2022/10/12 04:37:30;;;;;;;18.17;11.70;;;;;;;4.47;100.00;102234.69;5261318;28;20489;-66
2022/10/12 04:40:02;;;;;;;19.10;11.60;;;;;;;4.46;100.00;102236.44;5255365;28;20359;-66
2022/10/12 04:42:33;;;;;;;19.80;11.30;;;;;;;4.40;100.00;102236.63;5255640;28;20035;-66
2022/10/12 04:45:05;;;;;;;17.88;11.65;;;;;;;4.40;100.00;102247.19;5246809;28;20119;-66
2022/10/12 04:47:36;;;;;;;18.00;11.55;;;;;;;4.44;100.00;102245.31;5250717;28;20028;-66
2022/10/12 04:50:07;;;;;;;21.38;12.00;;;;;;;4.43;100.00;102243.56;5250575;28;20028;-66
2022/10/12 04:52:39;;;;;;;21.30;11.40;;;;;;;4.38;100.00;102245.50;5258948;28;20106;-66
2022/10/12 04:55:10;;;;;;;19.30;10.95;;;;;;;4.38;100.00;102248.16;5256870;28;20775;-66
2022/10/12 04:57:42;;;;;;;19.17;11.15;;;;;;;4.31;100.00;102244.78;5252369;28;20050;-66
2022/10/12 05:00:14;;;;;;;19.42;11.82;;;;;;;4.30;100.00;102251.00;5258730;28;20040;-66
2022/10/12 05:02:46;;;;;;;20.05;11.27;;;;;;;4.31;100.00;102247.44;5254061;28;20053;-65
2022/10/12 05:05:18;;;;;;;20.83;11.57;;;;;;;4.28;100.00;102252.81;5261117;28;20032;-66
2022/10/12 05:07:49;;;;;;;17.92;11.10;;;;;;;4.26;100.00;102244.94;5259129;28;20098;-66
2022/10/12 05:10:20;;;;;;;19.33;11.55;;;;;;;4.27;100.00;102245.78;5264220;28;20028;-66
2022/10/12 05:12:52;;;;;;;18.42;10.85;;;;;;;4.30;100.00;102240.44;5259027;28;20039;-66
2022/10/12 05:15:23;;;;;;;17.42;10.80;;;;;;;4.25;100.00;102234.41;5257091;28;20929;-65
2022/10/12 05:17:55;;;;;;;18.35;10.93;;;;;;;4.23;100.00;102231.78;5252416;28;20260;-65
2022/10/12 05:20:26;;;;;;;18.25;10.75;;;;;;;4.19;100.00;102230.16;5252752;28;20387;-66
2022/10/12 05:22:57;;;;;;;17.42;11.07;;;;;;;4.17;100.00;102221.41;5260633;28;20086;-66
2022/10/12 05:25:29;;;;;;;19.40;10.77;;;;;;;4.13;100.00;102223.25;5257739;28;20037;-66
2022/10/12 05:28:00;;;;;;;18.00;10.15;;;;;;;4.25;100.00;102218.56;5259121;28;20040;-66
2022/10/12 05:30:32;;;;;;;18.83;11.77;;;;;;;4.13;100.00;102225.91;5259009;28;20509;-66
2022/10/12 05:33:03;;;;;;;20.75;11.75;;;;;;;4.12;100.00;102215.38;5254590;28;20355;-66
2022/10/12 05:35:35;;;;;;;18.88;11.38;;;;;;;4.12;100.00;102216.25;5250230;28;20036;-66
2022/10/12 05:38:06;;;;;;;16.75;10.95;;;;;;;4.09;100.00;102216.34;5249097;28;20102;-66
2022/10/12 05:40:37;;;;;;;20.83;10.85;;;;;;;4.08;100.00;102217.22;5254933;28;20058;-66
2022/10/12 05:43:08;;;;;;;17.58;11.20;;;;;;;4.09;100.00;102218.13;5250558;28;20215;-65
2022/10/12 05:45:41;;;;;;;20.20;11.18;;;;;;;4.22;100.00;102214.22;5262085;28;20032;-66
2022/10/12 05:48:13;;;;;;;18.10;10.00;;;;;;;4.15;100.00;102212.66;5262555;28;20033;-66
2022/10/12 05:50:44;;;;;;;16.30;9.43;;;;;;;4.21;100.00;102211.63;5260936;28;20032;-66
2022/10/12 05:53:15;;;;;;;19.40;10.52;;;;;;;4.25;100.00;102207.97;5254912;28;20060;-66
2022/10/12 05:55:52;;;;;;;20.23;10.52;;;;;;;4.15;100.00;102209.16;5259592;28;20048;-66
2022/10/12 05:58:24;;;;;;;19.02;11.65;;;;;;;4.17;100.00;102215.25;5270120;28;20029;-66
2022/10/12 06:01:07;;;;;;;17.85;10.95;;;;;;;4.18;100.00;102216.97;5259595;28;20037;-66
2022/10/12 06:03:38;;;;;;;18.08;10.35;;;;;;;4.15;100.00;102217.94;5264411;28;20140;-66
2022/10/12 06:06:10;;;;;;;16.63;10.13;;;;;;;4.22;100.00;102221.25;5267991;28;20482;-66
2022/10/12 06:08:41;;;;;;;19.27;10.43;;;;;;;4.23;100.00;102221.22;5266896;28;20390;-66
2022/10/12 06:11:12;;;;;;;19.17;11.55;;;;;;;4.28;100.00;102223.75;5270117;28;20024;-66
2022/10/12 06:13:44;;;;;;;17.20;11.75;;;;;;;4.25;100.00;102218.56;5274106;28;20111;-66
2022/10/12 06:16:15;;;;;;;17.55;10.90;;;;;;;4.25;100.00;102213.25;5268490;28;20044;-66
2022/10/12 06:18:46;;;;;;;20.67;11.52;;;;;;;4.27;100.00;102214.94;5259585;28;20059;-66
2022/10/12 06:21:17;;;;;;;19.98;10.90;;;;;;;4.26;100.00;102212.38;5270148;28;20020;-66
2022/10/12 06:23:49;;;;;;;20.23;10.85;;;;;;;4.27;100.00;102207.03;5266583;28;20033;-66
2022/10/12 06:26:20;;;;;;;16.52;10.95;;;;;;;4.30;100.00;102217.50;5266047;28;20036;-66
2022/10/12 06:28:51;;;;;;;19.63;11.75;;;;;;;4.30;100.00;102214.88;5263865;28;20074;-66
2022/10/12 06:31:23;;;;;;;18.02;11.35;;;;;;;4.35;100.00;102217.38;5272988;28;20032;-66
2022/10/12 06:33:54;;;;;;;19.00;11.57;;;;;;;4.36;100.00;102215.63;5265241;28;20390;-66
2022/10/12 06:36:25;;;;;;;19.48;11.35;;;;;;;4.39;100.00;102218.16;5263221;28;20475;-65
2022/10/12 06:38:56;;;;;;;20.77;10.48;;;;;;;4.39;100.00;102212.88;5258656;28;20575;-66
2022/10/12 06:41:28;;;;;;;15.90;10.63;;;;;;;4.40;100.00;102209.34;5262892;28;20051;-66
2022/10/12 06:43:59;;;;;;;20.00;11.80;;;;;;;4.45;100.00;102205.66;5275870;28;20036;-66
2022/10/12 06:46:30;;;;;;;18.70;10.70;;;;;;;4.51;100.00;102202.81;5261210;28;20040;-66
2022/10/12 06:49:02;;;;;;;18.40;10.95;;;;;;;4.57;100.00;102209.72;5252720;28;20033;-65
2022/10/12 06:51:33;;;;;;;18.45;11.77;;;;;;;4.62;100.00;102212.19;5268029;28;20040;-65
2022/10/12 06:54:04;;;;;;;21.83;11.23;;;;;;;4.66;100.00;102209.44;5276673;28;20044;-66
2022/10/12 06:56:37;;;;;;;18.60;11.20;;;;;;;4.72;100.00;102206.59;5267048;28;20118;-66
2022/10/12 06:59:11;;;;;;;18.20;11.63;;;;;;;4.79;100.00;102209.06;5256416;28;20056;-65
2022/10/12 07:01:42;;;;;;;;;;;;;;;4.85;100.00;102217.69;5259158;28;20024;-66
2022/10/12 07:04:14;;;;;;;24.42;11.98;;;;;;;4.83;100.00;102215.97;5263229;28;19934;-65
2022/10/12 07:06:45;;;;;;;19.15;12.30;;;;;;;4.87;100.00;102218.50;5265974;28;20036;-65
2022/10/12 07:09:16;;;;;;;18.75;11.52;;;;;;;4.88;100.00;102222.88;5263992;28;20491;-66
2022/10/12 07:11:48;;;;;;;20.35;11.60;;;;;;;4.93;100.00;102219.22;5259065;28;20062;-65
2022/10/12 07:14:19;;;;;;;19.73;11.55;;;;;;;4.95;100.00;102215.63;5277639;28;20074;-66
2022/10/12 07:16:50;;;;;;;20.40;11.73;;;;;;;4.97;100.00;102213.78;5265587;28;20036;-65
2022/10/12 07:19:22;;;;;;;19.58;11.30;;;;;;;5.00;100.00;102212.81;5274996;28;20093;-66
2022/10/12 07:21:53;;;;;;;22.50;12.65;;;;;;;5.10;100.00;102208.97;5264371;28;20028;-66
2022/10/12 07:24:24;;;;;;;23.10;12.07;;;;;;;5.05;100.00;102200.31;5260835;28;20115;-66
2022/10/12 07:26:55;;;;;;;24.05;12.43;;;;;;;5.07;100.00;102202.00;5274789;28;20047;-66
2022/10/12 07:29:29;;;;;;;18.45;11.80;;;;;;;5.10;100.00;102204.56;5267166;28;20036;-66
2022/10/12 07:32:00;;;;;;;19.83;11.90;;;;;;;5.14;100.00;102200.03;5260367;28;20578;-65
2022/10/12 07:34:32;;;;;;;21.98;13.18;;;;;;;5.25;100.00;102202.31;5265571;28;20031;-66
2022/10/12 07:37:03;;;;;;;23.75;14.27;;;;;;;5.34;100.00;102201.19;5258212;28;20070;-66
2022/10/12 07:39:35;;;;;;;24.58;14.82;;;;;;;5.38;100.00;102208.09;5258611;28;20141;-66
2022/10/12 07:42:06;;;;;;;23.52;15.07;;;;;;;5.38;100.00;102213.38;5264363;28;20036;-65
2022/10/12 07:44:38;;;;;;;24.73;14.48;;;;;;;5.47;100.00;102211.31;5271579;28;20028;-66
2022/10/12 07:47:09;;;;;;;23.83;15.55;;;;;;;5.53;100.00;102212.88;5266457;28;20083;-66
2022/10/12 07:49:40;;;;;;;22.13;14.45;;;;;;;5.45;100.00;102212.28;5266524;28;20036;-66
2022/10/12 07:52:12;;;;;;;23.17;14.57;;;;;;;5.56;100.00;102211.91;5261346;28;20036;-66
2022/10/12 07:54:43;;;;;;;26.35;15.48;;;;;;;5.65;100.00;102215.09;5258448;28;20045;-66
2022/10/12 07:57:14;;;;;;;31.13;17.17;;;;;;;5.63;100.00;102222.22;5266789;28;20032;-66
2022/10/12 07:59:45;;;;;;;26.23;17.50;;;;;;;5.67;100.00;102221.22;5270322;28;20025;-66
2022/10/12 08:02:17;;;;;;;27.00;17.15;;;;;;;5.77;100.00;102210.31;5259044;28;20028;-66
2022/10/12 08:04:48;;;;;;;31.50;19.00;;;;;;;5.76;100.00;102214.75;5263762;28;20029;-66
2022/10/12 08:07:19;;;;;;;30.48;18.52;;;;;;;5.88;100.00;102221.41;5266087;28;20036;-66
2022/10/12 08:09:50;;;;;;;37.97;20.17;;;;;;;5.92;100.00;102232.75;5258844;28;20433;-66
2022/10/12 08:12:22;;;;;;;31.13;19.85;;;;;;;5.85;100.00;102229.47;5263254;28;20611;-66
2022/10/12 08:14:53;;;;;;;36.42;19.70;;;;;;;5.88;100.00;102226.69;5261419;28;20132;-66
2022/10/12 08:17:25;;;;;;;37.63;20.38;;;;;;;5.91;100.00;102226.59;5274521;28;20029;-65
2022/10/12 08:19:56;;;;;;;34.10;19.70;;;;;;;6.04;100.00;102220.00;5261279;28;20033;-66
2022/10/12 08:22:28;;;;;;;33.60;20.20;;;;;;;6.02;100.00;102213.00;5267047;28;20035;-66
2022/10/12 08:24:59;;;;;;;36.65;19.92;;;;;;;6.21;100.00;102222.03;5269543;28;20036;-66
2022/10/12 08:27:30;;;;;;;35.67;19.95;;;;;;;6.18;100.00;102218.63;5259886;28;20039;-65
2022/10/12 08:30:02;;;;;;;38.00;20.33;;;;;;;6.26;100.00;102212.13;5267417;28;20040;-66
2022/10/12 08:32:33;;;;;;;35.22;21.05;;;;;;;6.28;100.00;102212.06;5269759;28;20024;-66
2022/10/12 08:35:05;;;;;;;32.72;21.85;;;;;;;6.29;100.00;102197.91;5262829;28;20087;-66
2022/10/12 08:37:36;;;;;;;32.95;21.85;;;;;;;6.41;100.00;102205.41;5264066;28;20598;-66
2022/10/12 08:40:14;;;;;;;39.75;23.85;;;;;;;6.40;100.00;102203.66;5269241;28;20122;-66
2022/10/12 08:42:59;;;;;;;40.55;24.08;;;;;;;6.48;100.00;102206.91;5236188;28;20110;-66
2022/10/12 08:45:46;;;;;;;38.33;24.88;;;;;;;6.58;100.00;102206.56;5267430;28;20393;-66
2022/10/12 08:48:39;;;;;;;48.75;25.77;;;;;;;6.64;100.00;102207.19;5259828;28;20025;-66
2022/10/12 08:51:19;;;;;;;42.75;24.58;;;;;;;6.81;100.00;102208.34;5252359;28;20052;-66
2022/10/12 08:53:56;;;;;;;36.55;23.45;;;;;;;6.82;100.00;102200.28;5259324;28;20379;-66
2022/10/12 08:56:27;;;;;;;39.00;24.10;;;;;;;6.97;100.00;102198.84;5269028;28;20020;-66
2022/10/12 08:59:01;;;;;;;39.10;23.67;;;;;;;7.01;100.00;102211.06;5267631;28;20040;-66
2022/10/12 09:01:49;;;;;;;37.30;22.25;;;;;;;7.24;100.00;102207.47;5259346;28;20363;-66
2022/10/12 09:04:35;;;;;;;35.38;23.08;;;;;;;7.31;100.00;102212.56;5263184;28;20395;-66
2022/10/12 09:07:28;;;;;;;38.72;22.35;;;;;;;7.39;100.00;102211.31;5269851;28;20033;-66
2022/10/12 09:10:25;;;;;;;32.50;21.30;;;;;;;7.54;100.00;102215.13;5259771;28;20035;-66
2022/10/12 09:13:09;;;;;;;34.13;22.10;;;;;;;7.61;100.00;102218.38;5253538;28;20076;-66
2022/10/12 09:15:55;;;;;;;35.10;20.73;;;;;;;7.79;100.00;102220.25;5268006;28;20033;-66
2022/10/12 09:18:38;;;;;;;31.42;18.90;;;;;;;8.00;100.00;102230.91;5256838;28;20441;-66
2022/10/12 09:21:16;;;;;;;31.58;19.10;;;;;;;7.94;100.00;102224.06;5268462;28;20020;-66
2022/10/12 09:23:48;;;;;;;29.98;20.58;;;;;;;8.15;100.00;102232.00;5261503;28;20021;-66
2022/10/12 09:26:36;;;;;;;29.38;18.70;;;;;;;8.35;100.00;102228.47;5265329;28;20033;-66
2022/10/12 09:29:26;;;;;;;31.55;19.15;;;;;;;8.25;100.00;102223.56;5265892;28;20020;-66
2022/10/12 09:32:27;;;;;;;29.00;19.40;;;;;;;8.34;100.00;102219.66;5259250;28;20029;-66
2022/10/12 09:34:58;;;;;;;29.67;19.02;;;;;;;8.64;100.00;102213.88;5261879;28;20471;-66
2022/10/12 09:37:31;;;;;;;29.80;19.48;;;;;;;8.54;100.00;102223.22;5261679;28;20071;-66
2022/10/12 09:40:03;;;;;;;29.35;18.10;;;;;;;8.70;100.00;102216.25;5274524;28;20078;-66
2022/10/12 09:42:35;;;;;;;31.05;19.67;;;;;;;8.77;100.00;102216.84;5267293;28;20028;-66
2022/10/12 09:45:17;;;;;;;31.88;18.65;;;;;;;8.88;100.00;102225.19;5263626;28;20031;-66
2022/10/12 09:48:08;;;;;;;28.90;19.02;;;;;;;8.99;100.00;102222.00;5259315;28;20025;-66
2022/10/12 09:50:44;;;;;;;30.80;17.40;;;;;;;9.30;100.00;102220.50;5256070;28;20047;-66
2022/10/12 09:53:18;;;;;;;31.40;19.02;;;;;;;9.20;100.00;102220.09;5262872;28;20052;-66
2022/10/12 09:56:00;;;;;;;31.00;19.38;;;;;;;9.25;100.00;102207.44;5263719;28;20048;-66
2022/10/12 09:58:40;;;;;;;31.13;17.77;;;;;;;9.42;100.00;102204.78;5267176;28;20032;-66
2022/10/12 10:01:23;;;;;;;29.67;17.88;;;;;;;9.33;100.00;102204.38;5267587;28;20033;-66
2022/10/12 10:04:21;;;;;;;32.78;19.05;;;;;;;9.46;100.00;102199.31;5269167;28;20025;-66
2022/10/12 10:06:52;;;;;;;29.55;18.02;;;;;;;9.65;100.00;102189.44;5271750;28;20107;-66
2022/10/12 10:09:29;;;;;;;31.30;17.23;;;;;;;9.68;100.00;102188.41;5260934;28;20566;-66
2022/10/12 10:12:22;;;;;;;26.85;16.58;;;;;;;9.71;100.00;102182.94;5265673;28;20395;-66
2022/10/12 10:14:56;;;;;;;25.55;15.70;;;;;;;9.88;100.00;102185.59;5268995;28;20024;-66
2022/10/12 10:17:32;;;;;;;25.98;15.93;;;;;;;9.96;100.00;102186.06;5269176;28;20039;-66
2022/10/12 10:20:04;;;;;;;28.13;15.93;;;;;;;10.12;100.00;102193.25;5264076;28;20368;-68
2022/10/12 10:22:36;;;;;;;23.30;14.63;;;;;;;10.18;100.00;102187.56;5274623;28;20032;-66
2022/10/12 10:25:19;;;;;;;25.00;14.25;;;;;;;10.35;100.00;102184.91;5265192;28;20101;-66
2022/10/12 10:28:23;;;;;;;27.20;14.80;;;;;;;10.24;100.00;102187.28;5266349;28;20805;-66
2022/10/12 10:30:58;;;;;;;24.08;13.10;;;;;;;10.29;100.00;102200.34;5260929;28;20021;-66
2022/10/12 10:33:32;;;;;;;16.73;10.38;;;;;;;10.40;100.00;102192.66;5262690;28;20387;-66
2022/10/12 10:36:17;;;;;;;22.33;10.88;;;;;;;10.67;100.00;102190.28;5266096;28;20031;-66
2022/10/12 10:38:56;;;;;;;;;;;;;;;10.59;100.00;102184.53;5275505;28;20067;-66
2022/10/12 10:41:34;;;;;;;18.65;9.52;;;;;;;10.72;100.00;102182.91;5265935;28;20357;-66
2022/10/12 10:44:18;;;;;;;17.42;9.35;;;;;;;10.83;100.00;102184.09;5268363;28;20380;-67
2022/10/12 10:46:52;;;;;;;16.95;8.45;;;;;;;10.95;100.00;102167.41;5272036;28;20116;-66
2022/10/12 10:49:37;;;;;;;15.27;7.93;;;;;;;10.89;100.00;102170.38;5264329;28;20427;-66
2022/10/12 10:52:21;;;;;;;15.27;6.85;;;;;;;10.94;100.00;102163.84;5261949;28;20052;-66
2022/10/12 10:55:20;;;;;;;18.27;8.05;;;;;;;10.95;100.00;102172.75;5262938;28;20044;-66
2022/10/12 10:58:23;;;;;;;14.52;6.75;;;;;;;10.98;100.00;102167.19;5276826;28;20024;-67
2022/10/12 11:00:59;;;;;;;16.80;6.85;;;;;;;11.03;100.00;102159.81;5261419;28;20090;-66
2022/10/12 11:03:46;;;;;;;15.60;6.72;;;;;;;11.18;100.00;102160.72;5265750;28;20453;-66
2022/10/12 11:06:34;;;;;;;14.63;6.38;;;;;;;11.14;100.00;102154.72;5266680;28;20046;-66
2022/10/12 11:09:20;;;;;;;16.67;6.70;;;;;;;11.38;100.00;102152.38;5268742;28;20032;-67
2022/10/12 11:12:00;;;;;;;16.13;6.53;;;;;;;11.25;100.00;102147.88;5277997;28;20107;-67
2022/10/12 11:14:42;;;;;;;13.02;6.40;;;;;;;11.45;100.00;102144.88;5266660;28;20119;-67
2022/10/12 11:17:34;;;;;;;13.65;6.20;;;;;;;11.37;100.00;102136.44;5276577;28;20217;-67
2022/10/12 11:20:29;;;;;;;11.65;5.82;;;;;;;11.60;99.45;102142.22;5266669;28;20055;-67
2022/10/12 11:23:08;;;;;;;13.80;6.25;;;;;;;11.46;100.00;102124.34;5262444;28;20032;-66
2022/10/12 11:25:51;;;;;;;11.68;6.13;;;;;;;11.57;100.00;102124.56;5267360;28;20030;-67
2022/10/12 11:28:29;;;;;;;12.25;5.72;;;;;;;11.81;99.34;102118.69;5268116;28;20044;-67
2022/10/12 11:31:01;;;;;;;10.88;5.40;;;;;;;11.79;100.00;102113.44;5278170;28;20059;-67
2022/10/12 11:33:38;;;;;;;12.88;5.07;;;;;;;11.96;99.42;102118.63;5269110;28;20029;-67
2022/10/12 11:36:13;;;;;;;14.77;6.03;;;;;;;11.93;97.08;102105.47;5260778;28;20033;-66
2022/10/12 11:38:50;;;;;;;12.52;5.30;;;;;;;12.16;96.04;102103.16;5264218;28;20024;-67
2022/10/12 11:41:44;;;;;;;15.48;6.18;;;;;;;12.18;96.27;102093.22;5262294;28;20035;-67
2022/10/12 11:44:16;;;;;;;13.75;5.40;;;;;;;12.27;98.02;102084.63;5260716;28;20032;-67
2022/10/12 11:46:54;;;;;;;11.15;5.25;;;;;;;12.24;95.96;102084.81;5264761;28;20846;-67
2022/10/12 11:49:32;;;;;;;10.48;4.35;;;;;;;12.38;96.60;102078.56;5265222;28;20147;-67
2022/10/12 11:52:10;;;;;;;10.43;4.90;;;;;;;12.64;94.58;102092.94;5267879;28;20452;-67